createdAt,value
2018-01-21T00:00:43.224Z,3.91
2018-01-21T00:01:43.137Z,3.88
2018-01-21T00:02:43.176Z,3.88
2018-01-21T00:03:43.081Z,3.87
2018-01-21T00:04:43.126Z,3.92
2018-01-21T00:05:44.901Z,3.94
2018-01-21T00:06:43.043Z,3.92
2018-01-21T00:07:42.942Z,3.87
2018-01-21T00:08:42.988Z,3.92
2018-01-21T00:09:42.884Z,3.82
2018-01-21T00:10:42.902Z,3.94
2018-01-21T00:11:42.828Z,3.78
2018-01-21T00:12:42.853Z,3.91
2018-01-21T00:13:44.394Z,4.00
2018-01-21T00:14:42.827Z,3.92
2018-01-21T00:15:42.701Z,3.91
2018-01-21T00:16:42.707Z,3.84
2018-01-21T00:17:42.647Z,3.98
2018-01-21T00:18:42.685Z,3.92
2018-01-21T00:19:45.392Z,3.81
2018-01-21T00:20:44.418Z,3.85
2018-01-21T00:21:42.503Z,3.87
2018-01-21T00:22:42.470Z,3.84
2018-01-21T00:23:42.447Z,3.78
2018-01-21T00:24:42.408Z,3.78
2018-01-21T00:25:42.372Z,3.81
2018-01-21T00:26:42.361Z,3.81
2018-01-21T00:27:42.309Z,3.88
2018-01-21T00:28:42.278Z,3.98
2018-01-21T00:29:42.258Z,3.96
2018-01-21T00:30:42.221Z,4.02
2018-01-21T00:31:42.188Z,3.91
2018-01-21T00:32:42.177Z,3.92
2018-01-21T00:33:42.126Z,3.92
2018-01-21T00:34:42.093Z,3.98
2018-01-21T00:35:42.104Z,3.92
2018-01-21T00:36:42.031Z,3.91
2018-01-21T00:37:41.996Z,3.82
2018-01-21T00:38:41.984Z,3.85
2018-01-21T00:39:41.927Z,3.91
2018-01-21T00:40:41.899Z,3.88
2018-01-21T00:41:41.886Z,3.87
2018-01-21T00:42:41.834Z,3.84
2018-01-21T00:43:41.809Z,3.91
2018-01-21T00:44:41.775Z,3.94
2018-01-21T00:45:41.821Z,3.82
2018-01-21T00:46:41.706Z,3.87
2018-01-21T00:47:43.396Z,3.85
2018-01-21T00:48:41.643Z,3.88
2018-01-21T00:49:41.610Z,3.96
2018-01-21T00:50:41.584Z,3.92
2018-01-21T00:51:41.550Z,3.98
2018-01-21T00:52:41.519Z,3.91
2018-01-21T00:53:41.489Z,3.98
2018-01-21T00:54:41.456Z,4.06
2018-01-21T00:55:41.425Z,4.02
2018-01-21T00:56:41.421Z,3.99
2018-01-21T00:57:41.365Z,4.03
2018-01-21T00:58:41.334Z,4.03
2018-01-21T00:59:41.320Z,4.09
2018-01-21T01:00:41.266Z,4.09
2018-01-21T01:01:41.260Z,4.08
2018-01-21T01:02:41.204Z,4.06
2018-01-21T01:03:41.172Z,3.96
2018-01-21T01:04:41.134Z,3.94
2018-01-21T01:05:41.166Z,3.94
2018-01-21T01:06:41.073Z,3.98
2018-01-21T01:07:41.039Z,4.05
2018-01-21T01:08:41.013Z,4.03
2018-01-21T01:09:40.976Z,4.00
2018-01-21T01:10:40.950Z,4.06
2018-01-21T01:11:40.923Z,4.02
2018-01-21T01:12:40.885Z,4.00
2018-01-21T01:13:40.867Z,3.99
2018-01-21T01:14:40.821Z,3.98
2018-01-21T01:15:40.798Z,3.91
2018-01-21T01:16:40.760Z,3.92
2018-01-21T01:17:40.775Z,3.90
2018-01-21T01:18:40.691Z,3.88
2018-01-21T01:19:40.658Z,3.85
2018-01-21T01:20:40.627Z,3.84
2018-01-21T01:21:40.595Z,3.85
2018-01-21T01:22:40.575Z,3.85
2018-01-21T01:23:40.534Z,3.87
2018-01-21T01:24:40.500Z,3.96
2018-01-21T01:25:40.474Z,3.96
2018-01-21T01:26:40.449Z,3.90
2018-01-21T01:27:40.422Z,3.92
2018-01-21T01:28:40.380Z,3.91
2018-01-21T01:29:40.348Z,3.92
2018-01-21T01:30:40.317Z,3.91
2018-01-21T01:31:40.299Z,3.96
2018-01-21T01:32:40.258Z,4.00
2018-01-21T01:33:40.221Z,3.98
2018-01-21T01:34:40.195Z,3.91
2018-01-21T01:35:40.162Z,3.96
2018-01-21T01:36:40.154Z,4.03
2018-01-21T01:37:40.092Z,3.94
2018-01-21T01:38:40.145Z,3.96
2018-01-21T01:39:40.034Z,3.96
2018-01-21T01:40:40.062Z,3.94
2018-01-21T01:41:39.962Z,3.96
2018-01-21T01:42:41.962Z,4.05
2018-01-21T01:43:41.402Z,4.08
2018-01-21T01:44:39.900Z,4.02
2018-01-21T01:45:39.837Z,4.12
2018-01-21T01:46:40.430Z,4.06
2018-01-21T01:47:39.770Z,4.08
2018-01-21T01:48:41.450Z,3.99
2018-01-21T01:49:39.706Z,4.05
2018-01-21T01:50:39.739Z,3.90
2018-01-21T01:51:39.650Z,3.96
2018-01-21T01:52:39.709Z,3.92
2018-01-21T01:53:42.410Z,4.05
2018-01-21T01:54:39.678Z,3.92
2018-01-21T01:55:39.522Z,3.99
2018-01-21T01:56:39.512Z,3.92
2018-01-21T01:57:39.456Z,3.87
2018-01-21T01:58:39.420Z,3.91
2018-01-21T01:59:39.390Z,3.91
2018-01-21T02:00:39.445Z,3.92
2018-01-21T02:01:39.322Z,3.98
2018-01-21T02:02:39.337Z,3.91
2018-01-21T02:03:39.259Z,3.92
2018-01-21T02:04:39.289Z,3.88
2018-01-21T02:05:39.195Z,3.91
2018-01-21T02:06:39.289Z,3.94
2018-01-21T02:07:39.138Z,3.98
2018-01-21T02:08:39.215Z,3.85
2018-01-21T02:09:39.074Z,3.98
2018-01-21T02:10:39.120Z,3.91
2018-01-21T02:11:39.018Z,3.84
2018-01-21T02:12:42.962Z,3.87
2018-01-21T02:13:38.949Z,3.87
2018-01-21T02:14:38.955Z,3.85
2018-01-21T02:15:38.876Z,3.78
2018-01-21T02:16:38.945Z,3.81
2018-01-21T02:17:38.819Z,3.69
2018-01-21T02:18:38.828Z,3.49
2018-01-21T02:19:38.747Z,3.67
2018-01-21T02:20:40.400Z,3.56
2018-01-21T02:21:38.703Z,3.69
2018-01-21T02:22:38.658Z,3.59
2018-01-21T02:23:38.642Z,3.52
2018-01-21T02:24:38.591Z,3.52
2018-01-21T02:25:38.560Z,3.54
2018-01-21T02:26:38.532Z,3.55
2018-01-21T02:27:40.450Z,3.51
2018-01-21T02:28:38.469Z,3.52
2018-01-21T02:29:38.438Z,3.48
2018-01-21T02:30:38.398Z,3.36
2018-01-21T02:31:38.363Z,3.26
2018-01-21T02:32:38.333Z,3.36
2018-01-21T02:33:38.300Z,3.30
2018-01-21T02:34:38.263Z,3.29
2018-01-21T02:35:38.230Z,3.35
2018-01-21T02:36:38.200Z,3.33
2018-01-21T02:37:38.170Z,3.32
2018-01-21T02:38:38.199Z,3.30
2018-01-21T02:39:38.108Z,3.33
2018-01-21T02:40:38.080Z,3.26
2018-01-21T02:41:38.043Z,3.32
2018-01-21T02:42:38.016Z,3.35
2018-01-21T02:43:37.985Z,3.26
2018-01-21T02:44:38.110Z,3.29
2018-01-21T02:45:37.910Z,3.25
2018-01-21T02:46:37.876Z,3.14
2018-01-21T02:47:37.848Z,3.25
2018-01-21T02:48:37.819Z,3.14
2018-01-21T02:49:39.222Z,3.25
2018-01-21T02:50:37.781Z,3.20
2018-01-21T02:51:37.825Z,3.23
2018-01-21T02:52:37.684Z,3.27
2018-01-21T02:53:37.679Z,3.27
2018-01-21T02:54:37.617Z,3.27
2018-01-21T02:55:37.607Z,3.29
2018-01-21T02:56:37.553Z,3.25
2018-01-21T02:57:37.586Z,3.27
2018-01-21T02:58:37.484Z,3.32
2018-01-21T02:59:37.508Z,3.11
2018-01-21T03:00:37.421Z,3.17
2018-01-21T03:01:39.936Z,3.12
2018-01-21T03:02:37.358Z,3.11
2018-01-21T03:03:37.384Z,3.09
2018-01-21T03:04:37.305Z,2.96
2018-01-21T03:05:37.302Z,3.08
2018-01-21T03:06:37.226Z,3.14
2018-01-21T03:07:37.280Z,3.09
2018-01-21T03:08:37.163Z,3.18
2018-01-21T03:09:37.138Z,3.23
2018-01-21T03:10:37.109Z,3.12
2018-01-21T03:11:37.066Z,3.27
2018-01-21T03:12:37.032Z,3.32
2018-01-21T03:13:37.016Z,3.36
2018-01-21T03:14:37.920Z,3.32
2018-01-21T03:15:36.931Z,3.35
2018-01-21T03:16:36.904Z,3.33
2018-01-21T03:17:36.872Z,3.29
2018-01-21T03:18:36.834Z,3.32
2018-01-21T03:19:36.802Z,3.33
2018-01-21T03:20:36.770Z,3.25
2018-01-21T03:21:39.136Z,3.33
2018-01-21T03:22:36.711Z,3.25
2018-01-21T03:23:36.674Z,3.32
2018-01-21T03:24:36.641Z,3.29
2018-01-21T03:25:36.617Z,3.29
2018-01-21T03:26:36.569Z,3.32
2018-01-21T03:27:36.536Z,3.33
2018-01-21T03:28:36.524Z,3.27
2018-01-21T03:29:36.474Z,3.25
2018-01-21T03:30:38.408Z,3.30
2018-01-21T03:31:37.905Z,3.32
2018-01-21T03:32:36.385Z,3.42
2018-01-21T03:33:36.351Z,3.25
2018-01-21T03:34:36.337Z,3.23
2018-01-21T03:35:36.291Z,3.27
2018-01-21T03:36:36.250Z,3.25
2018-01-21T03:37:36.271Z,3.27
2018-01-21T03:38:36.184Z,3.30
2018-01-21T03:39:36.151Z,3.26
2018-01-21T03:40:36.127Z,3.33
2018-01-21T03:41:36.084Z,3.29
2018-01-21T03:42:36.048Z,3.42
2018-01-21T03:43:36.024Z,3.36
2018-01-21T03:44:36.005Z,3.33
2018-01-21T03:45:35.957Z,3.33
2018-01-21T03:46:35.938Z,3.30
2018-01-21T03:47:35.891Z,3.35
2018-01-21T03:48:35.859Z,3.33
2018-01-21T03:49:35.844Z,3.29
2018-01-21T03:50:35.789Z,3.20
2018-01-21T03:51:35.760Z,3.30
2018-01-21T03:52:35.741Z,3.27
2018-01-21T03:53:35.693Z,3.33
2018-01-21T03:54:35.659Z,3.36
2018-01-21T03:55:35.623Z,3.33
2018-01-21T03:56:35.590Z,3.32
2018-01-21T03:57:37.406Z,3.36
2018-01-21T03:58:35.580Z,3.35
2018-01-21T03:59:35.500Z,3.25
2018-01-21T04:00:35.465Z,3.32
2018-01-21T04:01:35.433Z,3.30
2018-01-21T04:02:35.410Z,3.37
2018-01-21T04:03:35.371Z,3.37
2018-01-21T04:04:35.342Z,3.29
2018-01-21T04:05:35.305Z,3.26
2018-01-21T04:06:35.264Z,3.33
2018-01-21T04:07:35.232Z,3.27
2018-01-21T04:08:35.205Z,3.30
2018-01-21T04:09:35.169Z,3.36
2018-01-21T04:10:35.136Z,3.27
2018-01-21T04:11:35.103Z,3.29
2018-01-21T04:12:35.077Z,3.33
2018-01-21T04:13:35.039Z,3.27
2018-01-21T04:14:35.007Z,3.27
2018-01-21T04:15:34.974Z,3.33
2018-01-21T04:16:34.942Z,3.32
2018-01-21T04:17:34.913Z,3.35
2018-01-21T04:18:34.885Z,3.23
2018-01-21T04:19:34.847Z,3.32
2018-01-21T04:20:34.817Z,3.32
2018-01-21T04:21:34.782Z,3.18
2018-01-21T04:22:34.742Z,3.11
2018-01-21T04:23:34.716Z,2.99
2018-01-21T04:24:34.682Z,3.07
2018-01-21T04:25:34.647Z,2.97
2018-01-21T04:26:34.612Z,3.05
2018-01-21T04:27:34.588Z,3.09
2018-01-21T04:28:34.549Z,3.05
2018-01-21T04:29:34.525Z,3.00
2018-01-21T04:30:34.487Z,2.97
2018-01-21T04:31:34.461Z,3.02
2018-01-21T04:32:34.420Z,3.05
2018-01-21T04:33:34.391Z,3.04
2018-01-21T04:34:34.355Z,3.09
2018-01-21T04:35:34.322Z,2.96
2018-01-21T04:36:34.292Z,2.89
2018-01-21T04:37:34.259Z,2.84
2018-01-21T04:38:34.224Z,2.79
2018-01-21T04:39:34.190Z,2.76
2018-01-21T04:40:34.154Z,2.84
2018-01-21T04:41:34.123Z,2.71
2018-01-21T04:42:34.092Z,2.71
2018-01-21T04:43:34.057Z,2.71
2018-01-21T04:44:34.023Z,2.69
2018-01-21T04:45:33.990Z,2.81
2018-01-21T04:46:33.961Z,2.81
2018-01-21T04:47:33.931Z,2.66
2018-01-21T04:48:33.903Z,2.81
2018-01-21T04:49:33.872Z,2.79
2018-01-21T04:50:33.834Z,2.76
2018-01-21T04:51:33.797Z,2.76
2018-01-21T04:52:33.765Z,2.75
2018-01-21T04:53:35.413Z,2.81
2018-01-21T04:54:33.702Z,2.76
2018-01-21T04:55:33.663Z,2.71
2018-01-21T04:56:33.633Z,2.71
2018-01-21T04:57:33.609Z,2.66
2018-01-21T04:58:33.561Z,2.72
2018-01-21T04:59:33.529Z,2.81
2018-01-21T05:00:33.498Z,2.81
2018-01-21T05:01:33.470Z,2.87
2018-01-21T05:02:33.450Z,2.81
2018-01-21T05:03:33.406Z,2.79
2018-01-21T05:04:33.371Z,2.86
2018-01-21T05:05:34.924Z,2.86
2018-01-21T05:06:33.339Z,2.84
2018-01-21T05:07:33.281Z,2.87
2018-01-21T05:08:33.245Z,2.99
2018-01-21T05:09:33.212Z,3.00
2018-01-21T05:10:33.184Z,2.97
2018-01-21T05:11:33.136Z,3.00
2018-01-21T05:12:33.107Z,3.02
2018-01-21T05:13:33.069Z,2.99
2018-01-21T05:14:33.034Z,3.05
2018-01-21T05:15:33.005Z,2.97
2018-01-21T05:16:32.974Z,3.00
2018-01-21T05:17:32.941Z,2.96
2018-01-21T05:18:34.415Z,2.93
2018-01-21T05:19:32.881Z,2.89
2018-01-21T05:20:32.849Z,2.79
2018-01-21T05:21:32.817Z,2.87
2018-01-21T05:22:32.787Z,2.79
2018-01-21T05:23:32.747Z,2.81
2018-01-21T05:24:32.711Z,2.79
2018-01-21T05:25:32.680Z,2.82
2018-01-21T05:26:32.644Z,2.87
2018-01-21T05:27:32.614Z,2.82
2018-01-21T05:28:32.600Z,2.79
2018-01-21T05:29:34.413Z,2.87
2018-01-21T05:30:32.509Z,2.84
2018-01-21T05:31:32.477Z,2.82
2018-01-21T05:32:32.444Z,2.99
2018-01-21T05:33:32.437Z,2.78
2018-01-21T05:34:32.386Z,2.87
2018-01-21T05:35:32.361Z,2.91
2018-01-21T05:36:32.322Z,2.94
2018-01-21T05:37:32.286Z,2.94
2018-01-21T05:38:32.250Z,3.02
2018-01-21T05:39:32.226Z,2.97
2018-01-21T05:40:32.210Z,3.00
2018-01-21T05:41:32.182Z,3.12
2018-01-21T05:42:32.119Z,3.04
2018-01-21T05:43:32.083Z,3.11
2018-01-21T05:44:32.052Z,3.08
2018-01-21T05:45:32.018Z,3.00
2018-01-21T05:46:33.914Z,3.00
2018-01-21T05:47:31.952Z,2.96
2018-01-21T05:48:31.922Z,2.90
2018-01-21T05:49:31.888Z,2.90
2018-01-21T05:50:34.427Z,2.99
2018-01-21T05:51:31.832Z,2.94
2018-01-21T05:52:31.797Z,3.02
2018-01-21T05:53:31.767Z,3.08
2018-01-21T05:54:31.733Z,3.12
2018-01-21T05:55:33.427Z,3.07
2018-01-21T05:56:31.699Z,3.09
2018-01-21T05:57:31.635Z,3.02
2018-01-21T05:58:33.415Z,3.08
2018-01-21T05:59:31.562Z,3.09
2018-01-21T06:00:31.536Z,3.02
2018-01-21T06:01:31.496Z,3.08
2018-01-21T06:02:33.419Z,3.08
2018-01-21T06:03:31.438Z,3.08
2018-01-21T06:04:31.412Z,2.96
2018-01-21T06:05:32.921Z,2.99
2018-01-21T06:06:31.333Z,2.94
2018-01-21T06:07:31.303Z,3.08
2018-01-21T06:08:31.272Z,3.09
2018-01-21T06:09:31.240Z,3.11
2018-01-21T06:10:31.201Z,3.14
2018-01-21T06:11:31.170Z,3.18
2018-01-21T06:12:31.164Z,3.23
2018-01-21T06:13:31.109Z,3.27
2018-01-21T06:14:31.083Z,3.17
2018-01-21T06:15:31.074Z,3.17
2018-01-21T06:16:31.020Z,3.23
2018-01-21T06:17:31.010Z,3.07
2018-01-21T06:18:30.947Z,3.08
2018-01-21T06:19:30.920Z,3.20
2018-01-21T06:20:30.917Z,3.12
2018-01-21T06:21:30.856Z,3.14
2018-01-21T06:22:30.812Z,3.14
2018-01-21T06:23:33.417Z,3.25
2018-01-21T06:24:30.748Z,3.22
2018-01-21T06:25:30.725Z,3.22
2018-01-21T06:26:30.693Z,3.14
2018-01-21T06:27:30.656Z,3.17
2018-01-21T06:28:30.621Z,3.20
2018-01-21T06:29:30.588Z,3.32
2018-01-21T06:30:30.562Z,3.27
2018-01-21T06:31:30.531Z,3.29
2018-01-21T06:32:30.495Z,3.32
2018-01-21T06:33:32.429Z,3.23
2018-01-21T06:34:31.923Z,3.36
2018-01-21T06:35:30.399Z,3.26
2018-01-21T06:36:30.363Z,3.26
2018-01-21T06:37:30.330Z,3.35
2018-01-21T06:38:30.318Z,3.30
2018-01-21T06:39:30.265Z,3.30
2018-01-21T06:40:30.234Z,3.30
2018-01-21T06:41:30.205Z,3.29
2018-01-21T06:42:31.918Z,3.32
2018-01-21T06:43:30.132Z,3.27
2018-01-21T06:44:30.102Z,3.27
2018-01-21T06:45:30.076Z,3.23
2018-01-21T06:46:30.037Z,3.18
2018-01-21T06:47:30.019Z,3.09
2018-01-21T06:48:29.975Z,3.05
2018-01-21T06:49:29.945Z,3.12
2018-01-21T06:50:29.932Z,3.18
2018-01-21T06:51:29.876Z,3.14
2018-01-21T06:52:29.848Z,3.09
2018-01-21T06:53:29.835Z,3.07
2018-01-21T06:54:29.775Z,3.20
2018-01-21T06:55:29.746Z,3.14
2018-01-21T06:56:29.734Z,3.17
2018-01-21T06:57:29.679Z,3.22
2018-01-21T06:58:29.650Z,3.08
2018-01-21T06:59:29.622Z,3.20
2018-01-21T07:00:29.585Z,3.14
2018-01-21T07:01:29.556Z,3.22
2018-01-21T07:02:30.432Z,3.20
2018-01-21T07:03:29.491Z,3.08
2018-01-21T07:04:29.456Z,3.15
2018-01-21T07:05:29.429Z,3.11
2018-01-21T07:06:29.383Z,3.18
2018-01-21T07:07:29.356Z,3.14
2018-01-21T07:08:29.331Z,3.14
2018-01-21T07:09:29.288Z,3.12
2018-01-21T07:10:29.266Z,3.14
2018-01-21T07:11:29.239Z,3.02
2018-01-21T07:12:29.204Z,3.08
2018-01-21T07:13:29.160Z,3.17
2018-01-21T07:14:29.144Z,3.07
2018-01-21T07:15:29.097Z,3.07
2018-01-21T07:16:29.065Z,3.15
2018-01-21T07:17:29.041Z,3.15
2018-01-21T07:18:29.019Z,3.14
2018-01-21T07:19:28.961Z,3.18
2018-01-21T07:20:28.956Z,3.14
2018-01-21T07:21:28.901Z,3.05
2018-01-21T07:22:28.864Z,2.96
2018-01-21T07:23:28.833Z,2.97
2018-01-21T07:24:28.797Z,3.00
2018-01-21T07:25:28.768Z,3.00
2018-01-21T07:26:28.749Z,3.08
2018-01-21T07:27:28.702Z,3.08
2018-01-21T07:28:28.672Z,3.07
2018-01-21T07:29:28.656Z,2.94
2018-01-21T07:30:28.608Z,2.93
2018-01-21T07:31:28.576Z,3.08
2018-01-21T07:32:28.562Z,3.05
2018-01-21T07:33:30.423Z,2.97
2018-01-21T07:34:28.472Z,3.00
2018-01-21T07:35:28.457Z,3.04
2018-01-21T07:36:28.406Z,3.07
2018-01-21T07:37:29.925Z,3.11
2018-01-21T07:38:28.347Z,3.00
2018-01-21T07:39:28.307Z,3.11
2018-01-21T07:40:28.286Z,3.08
2018-01-21T07:41:28.272Z,3.04
2018-01-21T07:42:28.215Z,3.12
2018-01-21T07:43:28.181Z,3.14
2018-01-21T07:44:28.162Z,3.09
2018-01-21T07:45:28.123Z,3.09
2018-01-21T07:46:28.087Z,3.07
2018-01-21T07:47:28.059Z,3.07
2018-01-21T07:48:28.027Z,2.96
2018-01-21T07:49:27.988Z,3.11
2018-01-21T07:50:27.948Z,3.11
2018-01-21T07:51:27.935Z,3.08
2018-01-21T07:52:27.886Z,3.04
2018-01-21T07:53:27.850Z,3.08
2018-01-21T07:54:27.820Z,3.11
2018-01-21T07:55:27.795Z,3.11
2018-01-21T07:56:27.761Z,3.18
2018-01-21T07:57:27.723Z,3.07
2018-01-21T07:58:27.692Z,3.09
2018-01-21T07:59:30.427Z,3.11
2018-01-21T08:00:27.636Z,3.15
2018-01-21T08:01:27.598Z,3.07
2018-01-21T08:02:27.569Z,3.07
2018-01-21T08:03:27.531Z,3.14
2018-01-21T08:04:29.440Z,3.08
2018-01-21T08:05:27.466Z,3.09
2018-01-21T08:06:27.433Z,3.14
2018-01-21T08:07:27.398Z,3.17
2018-01-21T08:08:28.943Z,3.11
2018-01-21T08:09:27.333Z,3.08
2018-01-21T08:10:28.928Z,3.12
2018-01-21T08:11:28.937Z,3.02
2018-01-21T08:12:27.240Z,3.11
2018-01-21T08:13:27.216Z,3.11
2018-01-21T08:14:27.171Z,3.22
2018-01-21T08:15:27.140Z,3.15
2018-01-21T08:16:27.105Z,3.25
2018-01-21T08:17:27.078Z,3.23
2018-01-21T08:18:27.038Z,3.22
2018-01-21T08:19:27.009Z,3.33
2018-01-21T08:20:26.976Z,3.33
2018-01-21T08:21:27.961Z,3.29
2018-01-21T08:22:26.915Z,3.27
2018-01-21T08:23:26.901Z,3.22
2018-01-21T08:24:26.872Z,3.30
2018-01-21T08:25:26.820Z,3.26
2018-01-21T08:26:26.791Z,3.27
2018-01-21T08:27:26.759Z,3.23
2018-01-21T08:28:26.743Z,3.36
2018-01-21T08:29:26.687Z,3.35
2018-01-21T08:30:26.655Z,3.41
2018-01-21T08:31:29.431Z,3.33
2018-01-21T08:32:26.590Z,3.35
2018-01-21T08:33:26.558Z,3.30
2018-01-21T08:34:26.830Z,3.36
2018-01-21T08:35:26.493Z,3.37
2018-01-21T08:36:26.462Z,3.30
2018-01-21T08:37:26.424Z,3.37
2018-01-21T08:38:26.396Z,3.45
2018-01-21T08:39:26.398Z,3.51
2018-01-21T08:40:26.343Z,3.48
2018-01-21T08:41:26.300Z,3.59
2018-01-21T08:42:26.269Z,3.51
2018-01-21T08:43:27.930Z,3.48
2018-01-21T08:44:26.224Z,3.48
2018-01-21T08:45:26.175Z,3.56
2018-01-21T08:46:26.141Z,3.49
2018-01-21T08:47:27.948Z,3.48
2018-01-21T08:48:27.928Z,3.52
2018-01-21T08:49:28.983Z,3.55
2018-01-21T08:50:26.244Z,3.55
2018-01-21T08:51:25.974Z,3.54
2018-01-21T08:52:25.968Z,3.56
2018-01-21T08:53:27.448Z,3.55
2018-01-21T08:54:25.892Z,3.55
2018-01-21T08:55:25.919Z,3.69
2018-01-21T08:56:25.821Z,3.62
2018-01-21T08:57:25.806Z,3.69
2018-01-21T08:58:25.755Z,3.70
2018-01-21T08:59:25.726Z,3.66
2018-01-21T09:00:27.447Z,3.69
2018-01-21T09:01:25.665Z,3.80
2018-01-21T09:02:25.623Z,3.66
2018-01-21T09:03:27.429Z,3.84
2018-01-21T09:04:25.561Z,3.67
2018-01-21T09:05:25.531Z,3.80
2018-01-21T09:06:27.430Z,3.80
2018-01-21T09:07:27.441Z,3.78
2018-01-21T09:08:25.441Z,3.82
2018-01-21T09:09:25.423Z,3.88
2018-01-21T09:10:25.374Z,3.80
2018-01-21T09:12:51.350Z,3.88
2018-01-21T09:13:51.259Z,3.87
2018-01-21T09:16:01.602Z,3.98
2018-01-21T09:17:01.560Z,3.98
2018-01-21T09:19:14.535Z,4.09
2018-01-21T09:20:14.394Z,4.10
2018-01-21T09:22:24.711Z,4.06
2018-01-21T09:23:24.721Z,4.16
2018-01-21T09:25:27.519Z,4.02
2018-01-21T09:26:27.490Z,3.90
2018-01-21T09:28:25.329Z,3.94
2018-01-21T09:29:25.248Z,3.94
2018-01-21T09:31:29.632Z,3.88
2018-01-21T09:32:29.561Z,3.91
2018-01-21T09:34:39.933Z,3.96
2018-01-21T09:35:39.864Z,4.08
2018-01-21T09:37:42.715Z,4.06
2018-01-21T09:38:42.642Z,4.16
2018-01-21T09:40:47.033Z,4.21
2018-01-21T09:41:47.014Z,4.24
2018-01-21T09:43:59.829Z,4.27
2018-01-21T09:44:59.782Z,4.27
2018-01-21T09:46:55.659Z,4.17
2018-01-21T09:47:55.550Z,4.20
2018-01-21T09:50:08.446Z,4.18
2018-01-21T09:51:08.384Z,4.21
2018-01-21T09:53:14.465Z,4.00
2018-01-21T09:54:14.202Z,4.06
2018-01-21T09:56:08.529Z,4.18
2018-01-21T09:57:08.598Z,4.20
2018-01-21T09:59:10.064Z,4.23
2018-01-21T10:00:11.519Z,4.36
2018-01-21T10:01:09.940Z,4.42
2018-01-21T10:02:09.908Z,4.30
2018-01-21T10:03:11.380Z,4.39
2018-01-21T10:04:09.849Z,4.31
2018-01-21T10:05:09.818Z,4.46
2018-01-21T10:06:11.391Z,4.46
2018-01-21T10:07:11.380Z,4.60
2018-01-21T10:08:09.726Z,4.63
2018-01-21T10:09:09.689Z,4.66
2018-01-21T10:10:09.923Z,4.60
2018-01-21T10:11:09.635Z,4.66
2018-01-21T10:12:09.637Z,4.63
2018-01-21T10:13:09.564Z,4.64
2018-01-21T10:14:09.536Z,4.67
2018-01-21T10:15:09.616Z,4.61
2018-01-21T10:16:09.468Z,4.77
2018-01-21T10:17:09.454Z,4.61
2018-01-21T10:18:09.407Z,4.63
2018-01-21T10:19:09.386Z,4.64
2018-01-21T10:20:09.351Z,4.66
2018-01-21T10:21:09.316Z,4.61
2018-01-21T10:22:09.290Z,4.66
2018-01-21T10:23:09.326Z,4.74
2018-01-21T10:24:09.354Z,4.83
2018-01-21T10:25:09.276Z,4.74
2018-01-21T10:26:09.261Z,4.91
2018-01-21T10:27:09.188Z,4.89
2018-01-21T10:28:09.121Z,4.91
2018-01-21T10:29:09.150Z,4.94
2018-01-21T10:30:09.114Z,4.98
2018-01-21T10:31:09.028Z,5.21
2018-01-21T10:32:09.029Z,5.16
2018-01-21T10:33:09.039Z,5.16
2018-01-21T10:34:08.908Z,5.21
2018-01-21T10:35:08.990Z,5.07
2018-01-21T10:36:08.874Z,4.93
2018-01-21T10:37:08.950Z,5.03
2018-01-21T10:38:08.876Z,5.03
2018-01-21T10:39:08.768Z,5.06
2018-01-21T10:40:08.745Z,5.15
2018-01-21T10:41:08.708Z,5.09
2018-01-21T10:42:08.806Z,5.01
2018-01-21T10:43:08.778Z,5.12
2018-01-21T10:44:08.611Z,5.15
2018-01-21T10:45:08.571Z,5.29
2018-01-21T10:46:08.541Z,5.25
2018-01-21T10:47:08.561Z,5.29
2018-01-21T10:48:08.677Z,5.22
2018-01-21T10:49:08.483Z,5.36
2018-01-21T10:50:08.469Z,5.47
2018-01-21T10:51:08.589Z,5.41
2018-01-21T10:52:08.477Z,5.22
2018-01-21T10:53:08.396Z,5.39
2018-01-21T10:54:08.379Z,5.52
2018-01-21T10:55:08.377Z,5.57
2018-01-21T10:56:10.043Z,5.59
2018-01-21T10:57:08.274Z,5.48
2018-01-21T10:58:08.218Z,5.54
2018-01-21T10:59:08.146Z,5.44
2018-01-21T11:00:08.191Z,5.44
2018-01-21T11:01:08.191Z,5.51
2018-01-21T11:02:08.049Z,5.41
2018-01-21T11:03:08.034Z,5.21
2018-01-21T11:04:07.991Z,5.25
2018-01-21T11:05:07.962Z,5.19
2018-01-21T11:06:09.886Z,5.37
2018-01-21T11:07:07.935Z,5.48
2018-01-21T11:08:07.868Z,5.77
2018-01-21T11:09:07.842Z,5.94
2018-01-21T11:10:07.807Z,5.98
2018-01-21T11:11:07.790Z,6.21
2018-01-21T11:12:07.753Z,6.13
2018-01-21T11:13:07.720Z,6.11
2018-01-21T11:14:07.691Z,6.05
2018-01-21T11:15:07.656Z,6.09
2018-01-21T11:16:07.620Z,5.95
2018-01-21T11:17:07.593Z,5.76
2018-01-21T11:18:07.562Z,5.98
2018-01-21T11:19:07.548Z,5.98
2018-01-21T11:20:07.500Z,6.03
2018-01-21T11:21:07.471Z,6.06
2018-01-21T11:22:07.441Z,6.16
2018-01-21T11:23:07.411Z,6.16
2018-01-21T11:24:07.391Z,6.35
2018-01-21T11:25:07.521Z,6.35
2018-01-21T11:26:09.894Z,6.19
2018-01-21T11:27:07.294Z,6.24
2018-01-21T11:28:07.262Z,6.06
2018-01-21T11:29:07.235Z,6.00
2018-01-21T11:30:07.202Z,5.97
2018-01-21T11:31:07.170Z,5.94
2018-01-21T11:32:07.143Z,5.69
2018-01-21T11:33:07.118Z,5.57
2018-01-21T11:34:07.082Z,5.69
2018-01-21T11:35:07.104Z,5.79
2018-01-21T11:36:07.026Z,5.95
2018-01-21T11:37:06.995Z,5.94
2018-01-21T11:38:06.965Z,6.00
2018-01-21T11:39:06.939Z,6.12
2018-01-21T11:40:06.911Z,6.31
2018-01-21T11:41:06.871Z,6.31
2018-01-21T11:42:06.842Z,6.34
2018-01-21T11:43:06.812Z,6.34
2018-01-21T11:44:06.780Z,6.38
2018-01-21T11:45:06.759Z,6.52
2018-01-21T11:46:06.721Z,6.63
2018-01-21T11:47:10.740Z,6.52
2018-01-21T11:48:06.666Z,6.67
2018-01-21T11:49:06.865Z,6.73
2018-01-21T11:50:06.610Z,6.82
2018-01-21T11:51:06.579Z,6.91
2018-01-21T11:52:06.550Z,6.96
2018-01-21T11:53:06.520Z,6.83
2018-01-21T11:54:06.487Z,6.73
2018-01-21T11:55:06.458Z,6.57
2018-01-21T11:56:06.426Z,6.32
2018-01-21T11:57:06.395Z,6.18
2018-01-21T11:58:06.404Z,6.19
2018-01-21T11:59:06.343Z,6.28
2018-01-21T12:00:06.313Z,6.35
2018-01-21T12:01:06.277Z,6.37
2018-01-21T12:02:06.246Z,6.38
2018-01-21T12:03:06.217Z,6.34
2018-01-21T12:04:06.196Z,6.37
2018-01-21T12:05:06.160Z,6.50
2018-01-21T12:06:06.129Z,6.65
2018-01-21T12:07:06.104Z,6.82
2018-01-21T12:08:06.071Z,6.75
2018-01-21T12:09:06.041Z,6.73
2018-01-21T12:10:06.013Z,6.81
2018-01-21T12:11:05.985Z,7.18
2018-01-21T12:12:05.949Z,6.91
2018-01-21T12:13:05.922Z,6.71
2018-01-21T12:14:05.893Z,6.71
2018-01-21T12:15:05.866Z,6.64
2018-01-21T12:16:05.835Z,6.75
2018-01-21T12:17:05.805Z,6.70
2018-01-21T12:18:05.783Z,7.98
2018-01-21T12:19:05.747Z,8.13
2018-01-21T12:20:05.721Z,8.34
2018-01-21T12:21:05.692Z,8.26
2018-01-21T12:22:05.664Z,7.77
2018-01-21T12:23:05.636Z,7.61
2018-01-21T12:24:05.601Z,7.52
2018-01-21T12:25:05.586Z,7.26
2018-01-21T12:26:05.546Z,7.29
2018-01-21T12:27:05.513Z,7.76
2018-01-21T12:28:05.482Z,8.13
2018-01-21T12:29:05.451Z,7.96
2018-01-21T12:30:05.422Z,7.84
2018-01-21T12:31:05.393Z,8.17
2018-01-21T12:32:05.371Z,9.27
2018-01-21T12:33:05.340Z,9.51
2018-01-21T12:34:05.312Z,9.73
2018-01-21T12:35:05.285Z,9.45
2018-01-21T12:36:05.298Z,9.15
2018-01-21T12:37:05.223Z,9.33
2018-01-21T12:38:05.195Z,9.30
2018-01-21T12:39:05.191Z,10.01
2018-01-21T12:40:05.138Z,10.70
2018-01-21T12:41:05.113Z,10.80
2018-01-21T12:42:05.126Z,10.76
2018-01-21T12:43:05.090Z,9.75
2018-01-21T12:44:05.036Z,8.92
2018-01-21T12:45:05.014Z,9.90
2018-01-21T12:46:04.980Z,10.43
2018-01-21T12:47:07.916Z,10.86
2018-01-21T12:48:04.944Z,11.85
2018-01-21T12:49:04.901Z,12.48
2018-01-21T12:50:04.868Z,11.79
2018-01-21T12:51:04.862Z,12.21
2018-01-21T12:52:04.814Z,11.08
2018-01-21T12:53:04.783Z,10.61
2018-01-21T12:54:04.781Z,10.35
2018-01-21T12:55:04.732Z,9.80
2018-01-21T12:56:04.710Z,9.14
2018-01-21T12:57:04.684Z,9.66
2018-01-21T12:58:04.655Z,8.96
2018-01-21T12:59:04.702Z,8.44
2018-01-21T13:00:04.650Z,9.51
2018-01-21T13:01:04.582Z,9.84
2018-01-21T13:02:04.556Z,9.75
2018-01-21T13:03:04.530Z,9.14
2018-01-21T13:04:04.510Z,8.57
2018-01-21T13:05:04.517Z,8.32
2018-01-21T13:06:04.447Z,7.80
2018-01-21T13:07:04.426Z,8.72
2018-01-21T13:08:04.390Z,7.99
2018-01-21T13:09:04.366Z,7.64
2018-01-21T13:10:04.341Z,7.43
2018-01-21T13:11:04.312Z,7.34
2018-01-21T13:12:04.285Z,7.40
2018-01-21T13:13:04.258Z,7.39
2018-01-21T13:14:04.230Z,7.49
2018-01-21T13:15:04.222Z,7.60
2018-01-21T13:16:04.178Z,7.43
2018-01-21T13:17:04.152Z,7.87
2018-01-21T13:18:04.124Z,7.76
2018-01-21T13:19:04.094Z,7.49
2018-01-21T13:20:04.068Z,7.16
2018-01-21T13:21:04.042Z,7.22
2018-01-21T13:22:04.013Z,7.16
2018-01-21T13:23:03.985Z,7.15
2018-01-21T13:24:03.971Z,7.01
2018-01-21T13:25:03.926Z,7.04
2018-01-21T13:26:03.892Z,7.06
2018-01-21T13:27:03.870Z,6.92
2018-01-21T13:28:03.837Z,7.10
2018-01-21T13:29:03.807Z,7.28
2018-01-21T13:30:03.775Z,7.43
2018-01-21T13:31:03.750Z,8.16
2018-01-21T13:32:03.729Z,8.99
2018-01-21T13:33:03.698Z,9.72
2018-01-21T13:34:03.667Z,9.08
2018-01-21T13:35:03.642Z,8.92
2018-01-21T13:36:03.606Z,8.96